Terminal Aerodrome Forecast
Issued by NWS

Home | Current Version | Previous Version | Text Only | Print | Product List | Glossary On
Versions: 1 2 3 4 5 6 7 8 9 10 11 12 13 14 15 16 17 18 19 20
000
FTUS44 KCRP 231147 AAA
TAFALI
TAF AMD
KALI 231147Z 2312/2412 VRB04KT 5SM BR SCT003 SCT010
      TEMPO 2312/2313 1/2SM FG BKN010
     FM231400 VRB04KT P6SM SCT015
     FM231600 13008KT P6SM SCT025
     FM232000 13014G19KT P6SM SCT050
     FM240100 12010KT P6SM SCT030
     FM240900 12003KT 5SM BR FEW015=

USA.gov is the U.S. government's official web portal to all federal, state and local government web resources and services.